Terminal Aerodrome Forecast
Issued by NWS Charleston, WV

Current Version | Previous Version | Graphics & Text | Print | Product List | Glossary On
Versions: 1 2 3 4 5 6 7 8 9 10 11 12 13 14 15 16 17 18
000
FTUS41 KRLX 241500 AAA
TAFBKW
TAF AMD
KBKW 241535Z 2416/2512 16009G21KT 6SM SHRA BKN040
     FM241900 17014G24KT P6SM BKN035
     FM242200 21015G32KT 5SM SHRA BR VCTS OVC035CB
     FM250100 22015G30KT 6SM SHRA OVC035
     FM250300 26014G26KT P6SM OVC025
     FM250700 26009G24KT P6SM BKN025
     FM250900 27010G18KT 6SM BR BKN015=

USA.gov is the U.S. government's official web portal to all federal, state and local government web resources and services.